Time;durP1;ratioP1;P1;durP2;ratioP2;P2;SDS_P1;SDS_P2;PMS_P1;PMS_P2;Temp;Humidity;BMP_temperature;BMP_pressure;BME280_temperature;BME280_humidity;BME280_pressure;Samples;Min_cycle;Max_cycle;Signal;HPM_P1;HPM_P2
2022/08/05 00:00:02;;;;;;;;;;;22.30;47.90;;;;;;482596;247;1076;-51
2022/08/05 00:02:04;;;;;;;;;;;22.30;47.90;;;;;;482240;247;1077;-51
2022/08/05 00:04:05;;;;;;;;;;;22.30;47.90;;;;;;482174;247;1238;-52
2022/08/05 00:06:07;;;;;;;;;;;22.30;47.90;;;;;;482108;247;1101;-51
2022/08/05 00:08:08;;;;;;;;;;;22.30;47.90;;;;;;482255;247;1185;-50
2022/08/05 00:10:10;;;;;;;;;;;22.30;47.90;;;;;;482199;247;2176;-50
2022/08/05 00:12:11;;;;;;;;;;;22.30;47.90;;;;;;482649;246;1290;-51
2022/08/05 00:14:13;;;;;;;;;;;22.30;47.90;;;;;;482605;247;1328;-51
2022/08/05 00:16:14;;;;;;;;;;;22.30;47.90;;;;;;482517;247;1265;-50
2022/08/05 00:18:15;;;;;;;;;;;22.30;47.90;;;;;;482294;246;1187;-51
2022/08/05 00:20:17;;;;;;;;;;;22.30;48.00;;;;;;482221;246;1258;-51
2022/08/05 00:22:18;;;;;;;;;;;22.30;48.00;;;;;;482297;247;1341;-50
2022/08/05 00:24:19;;;;;;;;;;;22.30;47.90;;;;;;482239;247;1225;-52
2022/08/05 00:26:20;;;;;;;;;;;22.30;48.00;;;;;;482388;247;1271;-51
2022/08/05 00:28:22;;;;;;;;;;;22.30;47.90;;;;;;482328;247;1187;-51
2022/08/05 00:30:23;;;;;;;;;;;22.40;47.90;;;;;;482525;247;2110;-51
2022/08/05 00:32:24;;;;;;;;;;;22.40;47.90;;;;;;481225;247;1334;-51
2022/08/05 00:34:26;;;;;;;;;;;22.40;47.90;;;;;;482139;247;1239;-51
2022/08/05 00:36:27;;;;;;;;;;;22.40;47.90;;;;;;482123;247;1343;-51
2022/08/05 00:38:28;;;;;;;;;;;22.30;47.90;;;;;;482479;246;1117;-51
2022/08/05 00:40:30;;;;;;;;;;;22.40;47.90;;;;;;482128;247;1280;-51
2022/08/05 00:42:31;;;;;;;;;;;22.30;47.90;;;;;;482120;247;1278;-51
2022/08/05 00:44:32;;;;;;;;;;;22.40;47.90;;;;;;482542;247;1243;-52
2022/08/05 00:46:34;;;;;;;;;;;22.40;47.90;;;;;;482251;246;1318;-51
2022/08/05 00:48:35;;;;;;;;;;;22.40;47.90;;;;;;482171;247;1225;-51
2022/08/05 00:50:37;;;;;;;;;;;22.40;47.90;;;;;;482197;247;2321;-51
2022/08/05 00:52:38;;;;;;;;;;;22.40;47.90;;;;;;482489;246;1279;-52
2022/08/05 00:54:39;;;;;;;;;;;22.40;47.90;;;;;;482145;247;1198;-51
2022/08/05 00:56:41;;;;;;;;;;;22.40;47.90;;;;;;482426;247;1397;-52
2022/08/05 00:58:42;;;;;;;;;;;22.40;47.90;;;;;;482600;247;1216;-51
2022/08/05 01:00:43;;;;;;;;;;;22.40;47.90;;;;;;482732;246;1332;-51
2022/08/05 01:02:45;;;;;;;;;;;22.40;47.90;;;;;;482562;247;1181;-51
2022/08/05 01:04:46;;;;;;;;;;;22.40;47.90;;;;;;482110;247;1088;-51
2022/08/05 01:06:47;;;;;;;;;;;22.50;47.90;;;;;;482044;247;1063;-52
2022/08/05 01:08:49;;;;;;;;;;;22.40;47.90;;;;;;482204;247;1110;-51
2022/08/05 01:10:50;;;;;;;;;;;22.40;47.90;;;;;;482198;247;2122;-52
2022/08/05 01:12:51;;;;;;;;;;;22.40;47.90;;;;;;482304;247;1070;-51
2022/08/05 01:14:53;;;;;;;;;;;22.40;47.90;;;;;;482451;247;1042;-51
2022/08/05 01:16:54;;;;;;;;;;;22.40;47.90;;;;;;482581;247;1021;-51
2022/08/05 01:18:55;;;;;;;;;;;22.40;47.90;;;;;;482575;247;1071;-51
2022/08/05 01:20:57;;;;;;;;;;;22.40;48.00;;;;;;482176;247;1080;-52
2022/08/05 01:22:59;;;;;;;;;;;22.40;48.00;;;;;;482441;246;1212;-51
2022/08/05 01:25:00;;;;;;;;;;;22.40;48.00;;;;;;482286;247;1170;-51
2022/08/05 01:27:01;;;;;;;;;;;22.40;48.00;;;;;;482410;247;1119;-51
2022/08/05 01:29:03;;;;;;;;;;;22.40;48.00;;;;;;482216;247;1293;-51
2022/08/05 01:31:04;;;;;;;;;;;22.40;48.00;;;;;;482257;247;2129;-51
2022/08/05 01:33:05;;;;;;;;;;;22.40;48.00;;;;;;482160;247;1207;-52
2022/08/05 01:35:07;;;;;;;;;;;22.40;48.10;;;;;;482435;247;1242;-51
2022/08/05 01:37:08;;;;;;;;;;;22.40;48.00;;;;;;482150;247;1318;-51
2022/08/05 01:39:09;;;;;;;;;;;22.40;48.10;;;;;;482309;247;1178;-51
2022/08/05 01:41:11;;;;;;;;;;;22.40;48.00;;;;;;482222;247;1288;-52
2022/08/05 01:43:12;;;;;;;;;;;22.40;48.10;;;;;;482090;247;1282;-51
2022/08/05 01:45:13;;;;;;;;;;;22.40;48.10;;;;;;482071;247;1534;-51
2022/08/05 01:47:15;;;;;;;;;;;22.40;48.10;;;;;;482135;247;1284;-51
2022/08/05 01:49:16;;;;;;;;;;;22.40;48.10;;;;;;482452;247;1216;-52
2022/08/05 01:51:17;;;;;;;;;;;22.40;48.20;;;;;;482170;247;2142;-51
2022/08/05 01:53:20;;;;;;;;;;;22.40;48.10;;;;;;482588;247;1181;-51
2022/08/05 01:55:20;;;;;;;;;;;22.40;48.10;;;;;;482128;247;1899;-51
2022/08/05 01:57:21;;;;;;;;;;;22.40;48.20;;;;;;482156;247;1090;-51
2022/08/05 01:59:23;;;;;;;;;;;22.40;48.20;;;;;;482327;246;1074;-50
2022/08/05 02:01:24;;;;;;;;;;;22.40;48.20;;;;;;482449;247;1041;-51
2022/08/05 02:03:26;;;;;;;;;;;22.40;48.20;;;;;;482539;247;1083;-51
2022/08/05 02:05:27;;;;;;;;;;;22.40;48.20;;;;;;482584;247;1063;-52
2022/08/05 02:07:28;;;;;;;;;;;22.40;48.20;;;;;;482564;247;1064;-51
2022/08/05 02:09:29;;;;;;;;;;;22.40;48.30;;;;;;482154;247;1077;-51
2022/08/05 02:11:31;;;;;;;;;;;22.40;48.30;;;;;;482131;247;2201;-51
2022/08/05 02:13:32;;;;;;;;;;;22.30;48.20;;;;;;482220;247;1105;-51
2022/08/05 02:15:34;;;;;;;;;;;22.30;48.30;;;;;;482122;247;1057;-51
2022/08/05 02:17:35;;;;;;;;;;;22.40;48.30;;;;;;482066;247;1116;-51
2022/08/05 02:19:37;;;;;;;;;;;22.30;48.20;;;;;;482120;247;1242;-51
2022/08/05 02:21:38;;;;;;;;;;;22.40;48.30;;;;;;482254;247;1336;-51
2022/08/05 02:23:39;;;;;;;;;;;22.40;48.20;;;;;;481757;247;1198;-51
2022/08/05 02:25:41;;;;;;;;;;;22.40;48.20;;;;;;482167;247;1244;-51
2022/08/05 02:27:42;;;;;;;;;;;22.40;48.30;;;;;;482338;247;1148;-50
2022/08/05 02:29:43;;;;;;;;;;;22.40;48.30;;;;;;482135;247;1215;-51
2022/08/05 02:31:45;;;;;;;;;;;22.40;48.20;;;;;;482257;247;2197;-52
2022/08/05 02:33:46;;;;;;;;;;;22.40;48.20;;;;;;482547;246;1204;-51
2022/08/05 02:35:47;;;;;;;;;;;22.40;48.20;;;;;;482332;247;1174;-51
2022/08/05 02:37:49;;;;;;;;;;;22.40;48.20;;;;;;482254;247;1391;-51
2022/08/05 02:39:50;;;;;;;;;;;22.40;48.20;;;;;;482278;247;1158;-51
2022/08/05 02:41:51;;;;;;;;;;;22.40;48.20;;;;;;482141;247;1273;-52
2022/08/05 02:43:53;;;;;;;;;;;22.40;48.30;;;;;;482482;247;1244;-51
2022/08/05 02:45:54;;;;;;;;;;;22.40;48.20;;;;;;482300;247;1046;-51
2022/08/05 02:47:55;;;;;;;;;;;22.40;48.30;;;;;;482330;247;1195;-52
2022/08/05 02:49:57;;;;;;;;;;;22.40;48.30;;;;;;481438;247;1184;-51
2022/08/05 02:51:58;;;;;;;;;;;22.40;48.20;;;;;;482426;246;2185;-51
2022/08/05 02:53:59;;;;;;;;;;;22.40;48.30;;;;;;482333;246;1073;-51
2022/08/05 02:56:01;;;;;;;;;;;22.40;48.20;;;;;;482249;247;1201;-51
2022/08/05 02:58:02;;;;;;;;;;;22.40;48.20;;;;;;482607;247;1035;-51
2022/08/05 03:00:03;;;;;;;;;;;22.40;48.20;;;;;;482472;247;1104;-51
2022/08/05 03:02:05;;;;;;;;;;;22.40;48.20;;;;;;482385;247;1206;-51
2022/08/05 03:04:06;;;;;;;;;;;22.40;48.20;;;;;;482170;247;1065;-51
2022/08/05 03:06:07;;;;;;;;;;;22.40;48.20;;;;;;482473;246;1068;-51
2022/08/05 03:08:09;;;;;;;;;;;22.50;48.20;;;;;;482186;247;1351;-51
2022/08/05 03:10:10;;;;;;;;;;;22.40;48.10;;;;;;482427;247;2168;-51
2022/08/05 03:12:12;;;;;;;;;;;22.40;48.20;;;;;;482156;247;1198;-51
2022/08/05 03:14:13;;;;;;;;;;;22.40;48.30;;;;;;482287;246;1059;-51
2022/08/05 03:16:14;;;;;;;;;;;22.40;48.30;;;;;;482556;246;1088;-51
2022/08/05 03:18:15;;;;;;;;;;;22.40;48.30;;;;;;482515;246;1064;-50
2022/08/05 03:20:17;;;;;;;;;;;22.40;48.40;;;;;;482385;247;1093;-51
2022/08/05 03:22:18;;;;;;;;;;;22.40;48.40;;;;;;482556;247;1090;-51
2022/08/05 03:24:19;;;;;;;;;;;22.40;48.30;;;;;;480665;247;1364;-51
2022/08/05 03:26:21;;;;;;;;;;;22.40;48.30;;;;;;482207;247;1209;-51
2022/08/05 03:28:22;;;;;;;;;;;22.40;48.30;;;;;;482608;246;1049;-51
2022/08/05 03:30:25;;;;;;;;;;;22.40;48.40;;;;;;482548;246;2245;-51
2022/08/05 03:32:25;;;;;;;;;;;22.40;48.40;;;;;;482581;247;2202;-52
2022/08/05 03:34:26;;;;;;;;;;;22.40;48.40;;;;;;482148;247;1094;-51
2022/08/05 03:36:27;;;;;;;;;;;22.40;48.40;;;;;;482134;247;1043;-51
2022/08/05 03:38:29;;;;;;;;;;;22.40;48.40;;;;;;482127;247;1041;-51
2022/08/05 03:40:30;;;;;;;;;;;22.40;48.40;;;;;;482375;246;1224;-50
2022/08/05 03:42:33;;;;;;;;;;;22.40;48.50;;;;;;482359;246;1292;-51
2022/08/05 03:44:33;;;;;;;;;;;22.40;48.50;;;;;;482542;247;2370;-52
2022/08/05 03:46:34;;;;;;;;;;;22.40;48.50;;;;;;482556;247;1211;-51
2022/08/05 03:48:35;;;;;;;;;;;22.40;48.50;;;;;;482494;247;1190;-51
2022/08/05 03:50:37;;;;;;;;;;;22.40;48.50;;;;;;482113;246;2272;-51
2022/08/05 03:52:38;;;;;;;;;;;22.40;48.50;;;;;;482100;246;1176;-51
2022/08/05 03:54:39;;;;;;;;;;;22.30;48.50;;;;;;482489;247;1302;-52
2022/08/05 03:56:41;;;;;;;;;;;22.40;48.50;;;;;;482135;246;1253;-51
2022/08/05 03:58:42;;;;;;;;;;;22.40;48.60;;;;;;482380;247;1216;-51
2022/08/05 04:00:43;;;;;;;;;;;22.40;48.50;;;;;;482422;246;1229;-51
2022/08/05 04:02:45;;;;;;;;;;;22.40;48.60;;;;;;482296;247;1333;-51
2022/08/05 04:04:46;;;;;;;;;;;22.40;48.50;;;;;;482054;247;1232;-51
2022/08/05 04:06:47;;;;;;;;;;;22.40;48.50;;;;;;482089;247;1064;-51
2022/08/05 04:08:49;;;;;;;;;;;22.40;48.60;;;;;;482121;247;1363;-51
2022/08/05 04:10:50;;;;;;;;;;;22.40;48.50;;;;;;477682;247;2175;-51
2022/08/05 04:12:51;;;;;;;;;;;22.40;48.60;;;;;;470931;251;1082;-51
2022/08/05 04:14:53;;;;;;;;;;;22.40;48.60;;;;;;470925;252;1049;-50
2022/08/05 04:16:54;;;;;;;;;;;22.40;48.60;;;;;;470924;251;1195;-51
2022/08/05 04:18:55;;;;;;;;;;;22.40;48.60;;;;;;470835;251;1195;-51
2022/08/05 04:20:57;;;;;;;;;;;22.40;48.60;;;;;;471300;252;1326;-51
2022/08/05 04:22:58;;;;;;;;;;;22.30;48.60;;;;;;471262;253;1214;-51
2022/08/05 04:25:00;;;;;;;;;;;22.40;48.60;;;;;;470970;251;1278;-51
2022/08/05 04:27:01;;;;;;;;;;;22.40;48.60;;;;;;470830;251;1199;-51
2022/08/05 04:29:02;;;;;;;;;;;22.40;48.60;;;;;;470801;251;1329;-51
2022/08/05 04:31:03;;;;;;;;;;;22.40;48.60;;;;;;470638;252;2195;-51
2022/08/05 04:33:05;;;;;;;;;;;22.30;48.60;;;;;;471187;251;1240;-51
2022/08/05 04:35:06;;;;;;;;;;;22.30;48.60;;;;;;471113;252;1216;-51
2022/08/05 04:37:07;;;;;;;;;;;22.40;48.70;;;;;;470730;252;1196;-52
2022/08/05 04:39:09;;;;;;;;;;;22.30;48.60;;;;;;471026;251;1123;-51
2022/08/05 04:41:10;;;;;;;;;;;22.40;48.70;;;;;;470854;251;1220;-51
2022/08/05 04:43:11;;;;;;;;;;;22.40;48.60;;;;;;470795;251;1222;-51
2022/08/05 04:45:13;;;;;;;;;;;22.40;48.60;;;;;;470729;252;1196;-51
2022/08/05 04:47:14;;;;;;;;;;;22.40;48.60;;;;;;471183;252;1161;-51
2022/08/05 04:49:15;;;;;;;;;;;22.40;48.60;;;;;;471200;251;1210;-51
2022/08/05 04:51:17;;;;;;;;;;;22.40;48.70;;;;;;470721;251;2199;-51
2022/08/05 04:53:18;;;;;;;;;;;22.40;48.60;;;;;;470767;251;1236;-51
2022/08/05 04:55:19;;;;;;;;;;;22.40;48.70;;;;;;470811;251;1278;-52
2022/08/05 04:57:21;;;;;;;;;;;22.40;48.70;;;;;;470723;251;1198;-51
2022/08/05 04:59:22;;;;;;;;;;;22.30;48.60;;;;;;470684;251;1242;-51
2022/08/05 05:01:23;;;;;;;;;;;22.30;48.70;;;;;;470802;251;1046;-51
2022/08/05 05:03:25;;;;;;;;;;;22.40;48.70;;;;;;470758;251;1058;-52
2022/08/05 05:05:26;;;;;;;;;;;22.30;48.60;;;;;;471134;251;1078;-52
2022/08/05 05:07:27;;;;;;;;;;;22.30;48.60;;;;;;470588;251;1260;-51
2022/08/05 05:09:29;;;;;;;;;;;22.30;48.60;;;;;;470634;251;1142;-51
2022/08/05 05:11:30;;;;;;;;;;;22.30;48.60;;;;;;471141;250;2127;-51
2022/08/05 05:13:32;;;;;;;;;;;22.30;48.70;;;;;;471229;252;1068;-52
2022/08/05 05:15:33;;;;;;;;;;;22.30;48.70;;;;;;471121;252;1122;-51
2022/08/05 05:17:34;;;;;;;;;;;22.30;48.60;;;;;;471258;252;1148;-51
2022/08/05 05:19:36;;;;;;;;;;;22.30;48.60;;;;;;471163;252;1070;-51
2022/08/05 05:21:37;;;;;;;;;;;22.30;48.60;;;;;;471131;252;1166;-51
2022/08/05 05:23:38;;;;;;;;;;;22.40;48.70;;;;;;471153;252;1106;-51
2022/08/05 05:25:40;;;;;;;;;;;22.30;48.60;;;;;;471175;252;1392;-51
2022/08/05 05:27:41;;;;;;;;;;;22.40;48.60;;;;;;471136;252;1162;-51
2022/08/05 05:29:42;;;;;;;;;;;22.40;48.60;;;;;;471578;252;1059;-51
2022/08/05 05:31:44;;;;;;;;;;;22.40;48.60;;;;;;471072;252;2152;-51
2022/08/05 05:33:45;;;;;;;;;;;22.40;48.60;;;;;;471127;252;1071;-52
2022/08/05 05:35:47;;;;;;;;;;;22.40;48.60;;;;;;471088;253;1388;-51
2022/08/05 05:37:48;;;;;;;;;;;22.40;48.60;;;;;;471327;252;1671;-52
2022/08/05 05:39:49;;;;;;;;;;;22.40;48.60;;;;;;471181;252;1514;-50
2022/08/05 05:41:51;;;;;;;;;;;22.40;48.60;;;;;;471134;252;1273;-51
2022/08/05 05:43:52;;;;;;;;;;;22.40;48.60;;;;;;471157;252;1313;-51
2022/08/05 05:45:54;;;;;;;;;;;22.40;48.70;;;;;;471075;252;1252;-51
2022/08/05 05:47:55;;;;;;;;;;;22.40;48.80;;;;;;470957;252;1172;-49
2022/08/05 05:49:56;;;;;;;;;;;22.40;48.70;;;;;;470932;252;1329;-51
2022/08/05 05:51:58;;;;;;;;;;;22.40;48.80;;;;;;471157;252;2147;-52
2022/08/05 05:53:59;;;;;;;;;;;22.40;48.90;;;;;;471021;252;1239;-51
2022/08/05 05:56:00;;;;;;;;;;;22.40;48.90;;;;;;471183;252;1197;-52
2022/08/05 05:58:02;;;;;;;;;;;22.50;48.80;;;;;;471081;251;1220;-51
2022/08/05 06:00:03;;;;;;;;;;;22.40;48.70;;;;;;471311;252;1262;-51
2022/08/05 06:02:04;;;;;;;;;;;22.40;48.50;;;;;;471032;251;1209;-52
2022/08/05 06:04:06;;;;;;;;;;;22.50;48.40;;;;;;471326;252;1230;-51
2022/08/05 06:06:07;;;;;;;;;;;22.50;48.20;;;;;;470966;252;1141;-51
2022/08/05 06:08:09;;;;;;;;;;;22.50;48.20;;;;;;471066;252;1165;-51
2022/08/05 06:10:10;;;;;;;;;;;22.50;48.00;;;;;;471067;253;1108;-51
2022/08/05 06:12:11;;;;;;;;;;;22.50;47.90;;;;;;470930;252;2194;-51
2022/08/05 06:14:13;;;;;;;;;;;22.50;47.90;;;;;;470974;252;1086;-52
2022/08/05 06:16:14;;;;;;;;;;;22.50;47.80;;;;;;470941;252;1347;-51
2022/08/05 06:18:15;;;;;;;;;;;22.50;47.80;;;;;;471089;252;1105;-50
2022/08/05 06:20:17;;;;;;;;;;;22.50;47.80;;;;;;470916;252;1088;-50
2022/08/05 06:22:18;;;;;;;;;;;22.50;47.70;;;;;;471157;252;1121;-51
2022/08/05 06:24:19;;;;;;;;;;;22.50;47.70;;;;;;471004;252;1107;-51
2022/08/05 06:26:21;;;;;;;;;;;22.50;47.70;;;;;;471150;252;1091;-51
2022/08/05 06:28:22;;;;;;;;;;;22.50;47.60;;;;;;471091;252;1311;-51
2022/08/05 06:30:25;;;;;;;;;;;22.50;47.60;;;;;;471020;252;1154;-52
2022/08/05 06:32:25;;;;;;;;;;;22.50;47.60;;;;;;470770;253;2203;-51
2022/08/05 06:34:26;;;;;;;;;;;22.50;47.60;;;;;;471011;252;1143;-50
2022/08/05 06:36:27;;;;;;;;;;;22.50;47.60;;;;;;471028;252;1227;-51
2022/08/05 06:38:29;;;;;;;;;;;22.50;47.50;;;;;;470915;252;1092;-51
2022/08/05 06:40:30;;;;;;;;;;;22.50;47.50;;;;;;471043;252;1069;-52
2022/08/05 06:42:31;;;;;;;;;;;22.50;47.50;;;;;;470903;252;1229;-52
2022/08/05 06:44:33;;;;;;;;;;;22.50;47.40;;;;;;471112;252;1447;-50
2022/08/05 06:46:34;;;;;;;;;;;22.50;47.50;;;;;;470842;252;1306;-51
2022/08/05 06:48:36;;;;;;;;;;;22.50;47.40;;;;;;470858;252;1312;-52
2022/08/05 06:50:37;;;;;;;;;;;22.50;47.40;;;;;;470883;252;1222;-51
2022/08/05 06:52:38;;;;;;;;;;;22.50;47.40;;;;;;470707;252;2143;-51
2022/08/05 06:54:40;;;;;;;;;;;22.50;47.30;;;;;;470773;251;1445;-51
2022/08/05 06:56:41;;;;;;;;;;;22.50;47.30;;;;;;470966;252;1241;-51
2022/08/05 06:58:43;;;;;;;;;;;22.50;47.30;;;;;;470894;252;1339;-51
2022/08/05 07:00:44;;;;;;;;;;;22.50;47.30;;;;;;470583;251;1258;-50
2022/08/05 07:02:45;;;;;;;;;;;22.50;47.30;;;;;;470885;252;1115;-52
2022/08/05 07:04:47;;;;;;;;;;;22.50;47.30;;;;;;470813;252;1130;-52
2022/08/05 07:06:48;;;;;;;;;;;22.50;47.20;;;;;;470866;252;1138;-51
2022/08/05 07:08:49;;;;;;;;;;;22.50;47.20;;;;;;470669;252;1822;-51
2022/08/05 07:10:51;;;;;;;;;;;22.50;47.20;;;;;;470817;252;1100;-51
2022/08/05 07:17:50;;;;;;;;;;;22.50;47.10;;;;;;447660;264;1250;-51
2022/08/05 07:19:53;;;;;;;;;;;22.50;47.00;;;;;;447666;265;1355;-51
2022/08/05 07:21:53;;;;;;;;;;;22.50;47.00;;;;;;447915;264;1368;-52
2022/08/05 07:23:55;;;;;;;;;;;22.50;47.10;;;;;;468497;253;1314;-52
2022/08/05 07:25:56;;;;;;;;;;;22.50;47.00;;;;;;470651;252;1301;-51
2022/08/05 07:27:57;;;;;;;;;;;22.50;47.00;;;;;;470600;252;1253;-52
2022/08/05 07:29:59;;;;;;;;;;;22.50;46.90;;;;;;470645;252;1253;-51
2022/08/05 07:32:00;;;;;;;;;;;22.50;46.90;;;;;;470799;252;2191;-51
2022/08/05 07:34:02;;;;;;;;;;;22.50;46.80;;;;;;470708;252;1260;-50
2022/08/05 07:36:03;;;;;;;;;;;22.50;46.80;;;;;;470644;252;1264;-52
2022/08/05 07:38:05;;;;;;;;;;;22.50;46.80;;;;;;470538;252;1229;-51
2022/08/05 07:40:06;;;;;;;;;;;22.50;46.90;;;;;;470530;252;1254;-50
2022/08/05 07:42:07;;;;;;;;;;;22.50;46.90;;;;;;470623;252;1288;-51
2022/08/05 07:44:09;;;;;;;;;;;22.50;46.80;;;;;;470621;251;1328;-52
2022/08/05 07:46:10;;;;;;;;;;;22.50;46.80;;;;;;470589;252;1306;-51
2022/08/05 07:48:11;;;;;;;;;;;22.50;46.90;;;;;;470641;251;1238;-51
2022/08/05 07:50:13;;;;;;;;;;;22.50;46.80;;;;;;470593;252;1365;-50
2022/08/05 07:52:14;;;;;;;;;;;22.50;46.80;;;;;;470632;252;2185;-51
2022/08/05 07:54:15;;;;;;;;;;;22.50;46.80;;;;;;470623;252;1328;-51
2022/08/05 07:56:16;;;;;;;;;;;22.50;46.80;;;;;;470805;252;1411;-50
2022/08/05 07:58:18;;;;;;;;;;;22.50;46.90;;;;;;470712;252;1277;-52
2022/08/05 08:00:20;;;;;;;;;;;22.50;46.80;;;;;;470681;252;1229;-51
2022/08/05 08:02:21;;;;;;;;;;;22.40;46.80;;;;;;470444;252;1251;-51
2022/08/05 08:04:22;;;;;;;;;;;22.50;46.80;;;;;;470495;252;1494;-50
2022/08/05 08:06:24;;;;;;;;;;;22.50;46.80;;;;;;470875;250;1378;-51
2022/08/05 08:08:25;;;;;;;;;;;22.50;46.70;;;;;;470821;250;1236;-51
2022/08/05 08:10:26;;;;;;;;;;;22.50;46.80;;;;;;470782;252;1139;-51
2022/08/05 08:12:27;;;;;;;;;;;22.50;46.80;;;;;;470746;252;2151;-51
2022/08/05 08:14:29;;;;;;;;;;;22.50;46.80;;;;;;470703;252;1175;-51
2022/08/05 08:16:30;;;;;;;;;;;22.50;46.70;;;;;;470727;252;1126;-51
2022/08/05 08:18:32;;;;;;;;;;;22.50;46.60;;;;;;470785;252;1146;-51
2022/08/05 08:20:33;;;;;;;;;;;22.50;46.60;;;;;;470088;252;1235;-51
2022/08/05 08:22:34;;;;;;;;;;;22.50;46.60;;;;;;470642;252;1383;-51
2022/08/05 08:24:36;;;;;;;;;;;22.50;46.60;;;;;;470649;252;1139;-51
2022/08/05 08:26:37;;;;;;;;;;;22.50;46.60;;;;;;470626;253;1077;-51
2022/08/05 08:28:39;;;;;;;;;;;22.50;46.60;;;;;;470522;252;1277;-51
2022/08/05 08:30:40;;;;;;;;;;;22.50;46.60;;;;;;469503;252;1164;-51
2022/08/05 08:32:41;;;;;;;;;;;22.50;46.70;;;;;;469439;252;2203;-52
2022/08/05 08:34:43;;;;;;;;;;;22.50;46.60;;;;;;469486;252;1122;-51
2022/08/05 08:36:44;;;;;;;;;;;22.50;46.60;;;;;;469664;252;1232;-50
2022/08/05 08:38:45;;;;;;;;;;;22.40;46.50;;;;;;470662;252;1234;-51
2022/08/05 08:40:48;;;;;;;;;;;22.50;46.50;;;;;;470639;252;1154;-51
2022/08/05 08:42:48;;;;;;;;;;;22.50;46.50;;;;;;470422;253;2495;-51
2022/08/05 08:44:49;;;;;;;;;;;22.50;46.50;;;;;;470766;252;1169;-51
2022/08/05 08:46:51;;;;;;;;;;;22.50;46.50;;;;;;470703;252;1271;-51
2022/08/05 08:48:52;;;;;;;;;;;22.50;46.50;;;;;;470645;252;1161;-51
2022/08/05 08:50:53;;;;;;;;;;;22.50;46.50;;;;;;470667;253;1218;-51
2022/08/05 08:52:54;;;;;;;;;;;22.50;46.40;;;;;;470761;252;2136;-51
2022/08/05 08:54:56;;;;;;;;;;;22.50;46.40;;;;;;470690;252;1287;-51
2022/08/05 08:56:57;;;;;;;;;;;22.50;46.40;;;;;;470642;252;1314;-51
2022/08/05 08:58:59;;;;;;;;;;;22.50;46.30;;;;;;470580;252;1180;-51
2022/08/05 09:01:00;;;;;;;;;;;22.50;46.30;;;;;;470577;252;1119;-51
2022/08/05 09:03:02;;;;;;;;;;;22.50;46.30;;;;;;470579;252;1166;-50
2022/08/05 09:05:03;;;;;;;;;;;22.50;46.30;;;;;;470562;252;1124;-47
2022/08/05 09:07:05;;;;;;;;;;;22.50;46.30;;;;;;470554;252;1334;-51
2022/08/05 09:09:06;;;;;;;;;;;22.50;46.30;;;;;;470532;252;1183;-51
2022/08/05 09:11:08;;;;;;;;;;;22.50;46.20;;;;;;470656;252;1214;-51
2022/08/05 09:13:09;;;;;;;;;;;22.50;46.30;;;;;;470732;252;2139;-52
2022/08/05 09:15:11;;;;;;;;;;;22.50;46.20;;;;;;470948;252;1148;-51
2022/08/05 09:17:12;;;;;;;;;;;22.50;46.30;;;;;;478060;247;1101;-51
2022/08/05 09:19:13;;;;;;;;;;;22.50;46.30;;;;;;481362;247;1120;-51
2022/08/05 09:21:14;;;;;;;;;;;22.50;46.20;;;;;;481414;247;1266;-51
2022/08/05 09:23:16;;;;;;;;;;;22.50;46.20;;;;;;481171;247;1269;-51
2022/08/05 09:25:17;;;;;;;;;;;22.50;46.30;;;;;;481398;247;1172;-51
2022/08/05 09:27:19;;;;;;;;;;;22.50;46.10;;;;;;481400;246;1225;-51
2022/08/05 09:29:20;;;;;;;;;;;22.50;46.20;;;;;;481517;247;1073;-51
2022/08/05 09:31:23;;;;;;;;;;;22.50;46.20;;;;;;481391;247;1504;-51
2022/08/05 09:33:23;;;;;;;;;;;22.50;46.20;;;;;;481495;247;2189;-51
2022/08/05 09:35:24;;;;;;;;;;;22.50;46.10;;;;;;481446;247;1128;-51
2022/08/05 09:37:25;;;;;;;;;;;22.50;46.10;;;;;;481481;247;1351;-50
2022/08/05 09:39:28;;;;;;;;;;;22.50;46.20;;;;;;481532;247;1236;-52
2022/08/05 09:41:28;;;;;;;;;;;22.50;46.20;;;;;;481409;246;1679;-51
2022/08/05 09:43:29;;;;;;;;;;;22.50;46.20;;;;;;480916;247;1170;-51
2022/08/05 09:45:31;;;;;;;;;;;22.50;46.20;;;;;;481586;246;1234;-51
2022/08/05 09:47:32;;;;;;;;;;;22.50;46.10;;;;;;481396;247;1415;-52
2022/08/05 09:49:33;;;;;;;;;;;22.50;46.10;;;;;;481368;246;1149;-51
2022/08/05 09:51:36;;;;;;;;;;;22.50;46.10;;;;;;481547;247;1144;-51
2022/08/05 09:53:36;;;;;;;;;;;22.50;46.10;;;;;;481277;247;2129;-50
2022/08/05 09:55:38;;;;;;;;;;;22.50;46.10;;;;;;481527;246;1192;-51
2022/08/05 09:57:39;;;;;;;;;;;22.50;46.10;;;;;;479905;247;1396;-51
2022/08/05 09:59:41;;;;;;;;;;;22.50;46.30;;;;;;481534;247;1660;-51
2022/08/05 10:01:42;;;;;;;;;;;22.50;46.20;;;;;;481442;246;1343;-51
2022/08/05 10:03:43;;;;;;;;;;;22.50;46.20;;;;;;481142;247;1217;-51
2022/08/05 10:05:45;;;;;;;;;;;22.50;46.10;;;;;;481558;247;1244;-51
2022/08/05 10:07:46;;;;;;;;;;;22.50;46.10;;;;;;481396;246;1360;-51
2022/08/05 10:09:47;;;;;;;;;;;22.50;46.00;;;;;;481412;247;1156;-52
2022/08/05 10:11:49;;;;;;;;;;;22.50;46.00;;;;;;481640;247;1354;-51
2022/08/05 10:13:51;;;;;;;;;;;22.50;46.10;;;;;;481632;246;2126;-51
2022/08/05 10:15:52;;;;;;;;;;;22.50;46.10;;;;;;473892;247;2696;-50
2022/08/05 10:17:53;;;;;;;;;;;22.50;46.00;;;;;;478433;247;1197;-51
2022/08/05 10:19:54;;;;;;;;;;;22.50;46.00;;;;;;481208;247;1114;-51
2022/08/05 10:21:56;;;;;;;;;;;22.50;46.00;;;;;;481500;247;1141;-52
2022/08/05 10:23:57;;;;;;;;;;;22.50;46.00;;;;;;481355;247;1062;-51
2022/08/05 10:25:58;;;;;;;;;;;22.50;46.00;;;;;;481377;247;1190;-51
2022/08/05 10:28:00;;;;;;;;;;;22.50;46.00;;;;;;481620;246;1079;-51
2022/08/05 10:30:01;;;;;;;;;;;22.50;46.00;;;;;;481351;247;1201;-51
2022/08/05 10:32:02;;;;;;;;;;;22.50;46.00;;;;;;481197;247;1229;-51
2022/08/05 10:34:04;;;;;;;;;;;22.50;46.10;;;;;;481542;247;2185;-52
2022/08/05 10:36:05;;;;;;;;;;;22.50;46.10;;;;;;481453;247;1332;-52
2022/08/05 10:38:06;;;;;;;;;;;22.50;46.10;;;;;;481370;247;1159;-51
2022/08/05 10:40:08;;;;;;;;;;;22.50;46.00;;;;;;481468;247;1328;-50
2022/08/05 10:42:09;;;;;;;;;;;22.50;46.10;;;;;;481641;246;1338;-52
2022/08/05 10:44:10;;;;;;;;;;;22.50;46.00;;;;;;481543;247;1211;-51
2022/08/05 10:46:12;;;;;;;;;;;22.50;46.00;;;;;;481570;246;1353;-51
2022/08/05 10:48:13;;;;;;;;;;;22.50;46.00;;;;;;481495;246;1228;-51
2022/08/05 10:50:15;;;;;;;;;;;22.50;46.00;;;;;;481439;246;1247;-52
2022/08/05 10:52:16;;;;;;;;;;;22.50;46.00;;;;;;481742;247;2200;-51
2022/08/05 10:54:17;;;;;;;;;;;22.50;46.00;;;;;;481594;247;2129;-51
2022/08/05 10:56:18;;;;;;;;;;;22.60;46.00;;;;;;481525;246;1294;-52
2022/08/05 10:58:20;;;;;;;;;;;22.50;46.00;;;;;;481465;246;1163;-52
2022/08/05 11:00:21;;;;;;;;;;;22.50;45.90;;;;;;481379;247;1181;-51
2022/08/05 11:02:22;;;;;;;;;;;22.50;45.90;;;;;;481579;247;1306;-52
2022/08/05 11:04:24;;;;;;;;;;;22.60;46.00;;;;;;481685;247;1207;-51
2022/08/05 11:06:25;;;;;;;;;;;22.60;46.00;;;;;;481617;246;1220;-51
2022/08/05 11:08:26;;;;;;;;;;;22.50;45.90;;;;;;481389;246;1226;-52
2022/08/05 11:10:28;;;;;;;;;;;22.50;45.90;;;;;;481425;247;1232;-51
2022/08/05 11:12:29;;;;;;;;;;;22.50;46.00;;;;;;481414;247;1237;-51
2022/08/05 11:14:31;;;;;;;;;;;22.50;45.90;;;;;;481338;246;2196;-50
2022/08/05 11:16:32;;;;;;;;;;;22.50;45.90;;;;;;481472;246;2195;-51
2022/08/05 11:18:33;;;;;;;;;;;22.50;45.90;;;;;;481379;247;1214;-51
2022/08/05 11:20:36;;;;;;;;;;;22.50;45.90;;;;;;481371;246;1184;-51
2022/08/05 11:22:36;;;;;;;;;;;22.50;45.90;;;;;;481540;247;1441;-49
2022/08/05 11:24:37;;;;;;;;;;;22.50;45.90;;;;;;481573;246;1145;-50
2022/08/05 11:26:38;;;;;;;;;;;22.50;46.00;;;;;;481514;247;1320;-51
2022/08/05 11:28:41;;;;;;;;;;;22.50;45.90;;;;;;481503;247;1334;-50
2022/08/05 11:30:41;;;;;;;;;;;22.50;45.90;;;;;;479054;247;2458;-51
2022/08/05 11:32:42;;;;;;;;;;;22.50;45.90;;;;;;470483;252;1107;-51
2022/08/05 11:34:44;;;;;;;;;;;22.50;45.90;;;;;;472765;247;2207;-52
2022/08/05 11:36:46;;;;;;;;;;;22.50;45.90;;;;;;481650;246;1386;-51
2022/08/05 11:38:48;;;;;;;;;;;22.50;45.90;;;;;;481483;247;1089;-51
2022/08/05 11:40:48;;;;;;;;;;;22.50;45.90;;;;;;481441;247;2299;-51
2022/08/05 11:42:50;;;;;;;;;;;22.50;45.90;;;;;;481362;247;1090;-51
2022/08/05 11:44:51;;;;;;;;;;;22.50;45.80;;;;;;481546;247;1112;-51
2022/08/05 11:46:52;;;;;;;;;;;22.50;45.90;;;;;;481415;247;1445;-51
2022/08/05 11:48:54;;;;;;;;;;;22.50;45.90;;;;;;481632;246;1191;-51
2022/08/05 11:50:55;;;;;;;;;;;22.50;45.90;;;;;;481625;246;1221;-52
2022/08/05 11:52:57;;;;;;;;;;;22.50;45.80;;;;;;481485;247;1213;-51
2022/08/05 11:54:58;;;;;;;;;;;22.50;45.80;;;;;;481329;246;2129;-51
2022/08/05 11:57:00;;;;;;;;;;;22.50;45.80;;;;;;481471;247;1142;-51
2022/08/05 11:59:01;;;;;;;;;;;22.50;45.80;;;;;;481531;247;2060;-51
2022/08/05 12:01:02;;;;;;;;;;;22.50;45.80;;;;;;481533;247;1391;-51